CheckWX is a tool to help pilots better visualize weather data.  It is not intended as a substitute for an official pre-flight weather briefing.

18:08:42 UTC

KSME TAF
Lake Cumberland Regional Airport
Somerset, Kentucky, USA
KSME 112340Z 1200/1224 VRB03KT P6SM FEW050 FM120200 VRB03KT P6SM VCTS FEW030CB SCT040 FM120600 00000KT P6SM FEW060 SCT100 FM121700 VRB04KT P6SM VCTS BKN040CB

Jul-12@
00:00 UTC

Jul-12 @ 00:00 UTC

Jul-12@
02:00 UTC

Jul-12 @ 02:00 UTC

TAF KSME 112340Z 1200/1224 VRB03KT P6SM FEW050

Expired

Wind
  • Variable at 3 KTS
Cloud Levels
  • Few at 5,000' AGL

Jul-12@
02:00 UTC

Jul-12 @ 02:00 UTC

Jul-12@
06:00 UTC

Jul-12 @ 06:00 UTC

FM120200 VRB03KT P6SM VCTS FEW030CB SCT040

Expired

Wind
  • Variable at 3 KTS
Conditions
Area Thunderstorm
Cloud Levels
  • Few at 3,000' AGL
  • Scattered at 4,000' AGL

Jul-12@
06:00 UTC

Jul-12 @ 06:00 UTC

Jul-12@
17:00 UTC

Jul-12 @ 17:00 UTC

FM120600 00000KT P6SM FEW060 SCT100

Expired

Cloud Levels
  • Few at 6,000' AGL
  • Scattered at 10,000' AGL

Jul-12@
17:00 UTC

Jul-12 @ 17:00 UTC

Jul-13@
00:00 UTC

Jul-13 @ 00:00 UTC

FM121700 VRB04KT P6SM VCTS BKN040CB

From

From Standard forecast or significant change

Wind
  • Variable at 4 KTS
Conditions
Area Thunderstorm
Cloud Levels
  • Broken at 4,000' AGL